createdAt,value
2022-10-02T00:02:38.889Z,55.15
2022-10-02T00:05:27.681Z,55.17
2022-10-02T00:08:24.019Z,55.47
2022-10-02T00:10:58.442Z,55.43
2022-10-02T00:13:39.689Z,55.72
2022-10-02T00:16:20.451Z,55.67
2022-10-02T00:18:49.555Z,55.90
2022-10-02T00:21:48.580Z,55.43
2022-10-02T00:24:20.395Z,55.43
2022-10-02T00:26:53.596Z,55.63
2022-10-02T00:29:45.839Z,56.24
2022-10-02T00:32:17.790Z,56.21
2022-10-02T00:35:23.033Z,56.08
2022-10-02T00:38:11.671Z,56.09
2022-10-02T00:41:02.842Z,56.32
2022-10-02T00:43:50.798Z,56.55
2022-10-02T00:46:26.879Z,56.45
2022-10-02T00:49:23.849Z,56.57
2022-10-02T00:52:17.450Z,56.84
2022-10-02T00:54:54.515Z,57.09
2022-10-02T00:57:34.103Z,57.15
2022-10-02T01:00:11.797Z,57.48
2022-10-02T01:02:58.533Z,57.54
2022-10-02T01:05:27.777Z,57.78
2022-10-02T01:07:57.430Z,57.71
2022-10-02T01:10:26.911Z,57.62
2022-10-02T01:12:56.765Z,57.61
2022-10-02T01:15:34.589Z,57.28
2022-10-02T01:18:03.037Z,57.15
2022-10-02T01:20:34.878Z,57.52
2022-10-02T01:23:03.160Z,57.33
2022-10-02T01:25:30.988Z,57.49
2022-10-02T01:27:59.060Z,57.52
2022-10-02T01:30:27.232Z,57.24
2022-10-02T01:32:59.992Z,57.46
2022-10-02T01:35:34.549Z,57.30
2022-10-02T01:38:07.761Z,57.62
2022-10-02T01:40:38.481Z,57.67
2022-10-02T01:43:08.817Z,57.79
2022-10-02T01:45:59.645Z,57.69
2022-10-02T01:49:05.329Z,57.96
2022-10-02T01:51:59.384Z,58.04
2022-10-02T01:54:29.852Z,57.99
2022-10-02T01:57:36.107Z,58.04
2022-10-02T02:00:09.541Z,58.63
2022-10-02T02:02:42.419Z,59.19
2022-10-02T02:05:21.043Z,58.92
2022-10-02T02:07:59.519Z,59.10
2022-10-02T02:10:37.410Z,59.09
2022-10-02T02:13:23.720Z,59.15
2022-10-02T02:16:25.330Z,59.13
2022-10-02T02:19:12.110Z,59.26
2022-10-02T02:21:45.391Z,59.20
2022-10-02T02:24:24.809Z,58.84
2022-10-02T02:27:02.884Z,58.58
2022-10-02T02:29:38.884Z,58.28
2022-10-02T02:32:19.771Z,58.34
2022-10-02T02:35:34.065Z,58.45
2022-10-02T02:38:42.270Z,57.78
2022-10-02T02:41:30.103Z,57.07
2022-10-02T02:44:33.299Z,56.72
2022-10-02T02:47:17.515Z,56.48
2022-10-02T02:49:58.874Z,56.31
2022-10-02T02:53:03.875Z,56.06
2022-10-02T02:55:52.537Z,56.00
2022-10-02T02:59:10.592Z,56.35
2022-10-02T03:01:42.767Z,56.58
2022-10-02T03:04:20.152Z,56.66
2022-10-02T03:07:01.176Z,57.05
2022-10-02T03:09:33.222Z,57.52
2022-10-02T03:12:20.306Z,57.50
2022-10-02T03:15:06.360Z,57.05
2022-10-02T03:17:45.317Z,56.93
2022-10-02T03:20:49.941Z,56.77
2022-10-02T03:23:43.378Z,56.39
2022-10-02T03:26:27.740Z,56.02
2022-10-02T03:29:00.835Z,56.29
2022-10-02T03:31:33.383Z,56.12
2022-10-02T03:34:05.994Z,55.97
2022-10-02T03:36:35.124Z,56.39
2022-10-02T03:39:24.339Z,56.58
2022-10-02T03:41:54.083Z,57.12
2022-10-02T03:44:21.821Z,56.94
2022-10-02T03:46:57.705Z,56.54
2022-10-02T03:49:25.432Z,56.25
2022-10-02T03:51:53.328Z,56.14
2022-10-02T03:54:22.886Z,55.73
2022-10-02T03:56:56.178Z,55.64
2022-10-02T03:59:34.619Z,56.34
2022-10-02T04:02:14.132Z,57.17
2022-10-02T04:04:52.410Z,57.53
2022-10-02T04:07:27.274Z,58.25
2022-10-02T04:10:24.943Z,58.07
2022-10-02T04:12:58.843Z,57.65
2022-10-02T04:15:59.795Z,57.33
2022-10-02T04:18:41.325Z,57.41
2022-10-02T04:21:30.592Z,57.31
2022-10-02T04:24:07.849Z,56.90
2022-10-02T04:26:43.191Z,57.04
2022-10-02T04:29:27.494Z,57.17
2022-10-02T04:32:11.190Z,57.00
2022-10-02T04:34:40.481Z,57.40
2022-10-02T04:37:37.329Z,57.97
2022-10-02T04:40:28.837Z,58.31
2022-10-02T04:43:39.927Z,59.15
2022-10-02T04:46:38.912Z,59.14
2022-10-02T04:49:20.812Z,59.13
2022-10-02T04:51:55.104Z,59.09
2022-10-02T04:54:39.975Z,59.12
2022-10-02T04:57:25.545Z,59.02
2022-10-02T05:00:24.389Z,58.76
2022-10-02T05:03:21.605Z,58.77
2022-10-02T05:06:07.319Z,59.10
2022-10-02T05:08:58.903Z,58.76
2022-10-02T05:12:07.752Z,58.81
2022-10-02T05:14:57.880Z,58.98
2022-10-02T05:18:06.248Z,58.98
2022-10-02T05:21:03.189Z,59.36
2022-10-02T05:23:37.521Z,58.70
2022-10-02T05:26:45.278Z,59.18
2022-10-02T05:29:51.936Z,59.25
2022-10-02T05:32:43.726Z,59.36
2022-10-02T05:35:16.389Z,59.53
2022-10-02T05:37:58.970Z,59.49
2022-10-02T05:40:46.289Z,59.15
2022-10-02T05:43:47.501Z,58.96
2022-10-02T05:46:44.160Z,58.72
2022-10-02T05:49:23.025Z,58.56
2022-10-02T05:52:11.340Z,58.09
2022-10-02T05:55:22.148Z,58.03
2022-10-02T05:58:18.111Z,58.06
2022-10-02T06:00:46.564Z,57.74
2022-10-02T06:04:03.532Z,57.59
2022-10-02T06:06:57.403Z,57.38
2022-10-02T06:09:32.797Z,57.43
2022-10-02T06:12:04.794Z,57.15
2022-10-02T06:14:53.875Z,57.24
2022-10-02T06:17:41.699Z,57.18
2022-10-02T06:20:39.814Z,56.69
2022-10-02T06:23:25.702Z,56.58
2022-10-02T06:25:59.475Z,56.33
2022-10-02T06:28:55.630Z,55.83
2022-10-02T06:31:47.620Z,55.92
2022-10-02T06:34:16.121Z,55.77
2022-10-02T06:37:02.902Z,55.92
2022-10-02T06:40:15.002Z,55.96
2022-10-02T06:43:27.573Z,55.88
2022-10-02T06:46:02.696Z,55.06
2022-10-02T06:48:33.462Z,54.75
2022-10-02T06:51:26.650Z,54.27
2022-10-02T06:54:23.921Z,54.26
2022-10-02T06:57:13.228Z,53.60
2022-10-02T07:00:14.499Z,53.67
2022-10-02T07:03:28.927Z,53.69
2022-10-02T07:06:12.800Z,53.32
2022-10-02T07:09:08.350Z,58.30
2022-10-02T07:11:51.086Z,53.88
2022-10-02T07:14:55.994Z,52.27
2022-10-02T07:17:30.826Z,54.26
2022-10-02T07:20:14.259Z,51.71
2022-10-02T07:23:07.788Z,51.69
2022-10-02T07:25:56.491Z,50.66
2022-10-02T07:28:37.812Z,52.93
2022-10-02T07:31:23.211Z,50.90
2022-10-02T07:34:06.747Z,50.59
2022-10-02T07:36:34.410Z,49.86
2022-10-02T07:39:24.354Z,50.55
2022-10-02T07:42:18.530Z,48.58
2022-10-02T07:45:31.705Z,48.63
2022-10-02T07:48:41.187Z,49.58
2022-10-02T07:51:41.187Z,49.15
2022-10-02T07:54:08.527Z,47.79
2022-10-02T07:56:37.865Z,48.42
2022-10-02T07:59:11.688Z,48.01
2022-10-02T08:01:41.880Z,47.95
2022-10-02T08:04:19.142Z,47.57
2022-10-02T08:06:48.450Z,47.01
2022-10-02T08:09:29.684Z,47.24
2022-10-02T08:12:10.427Z,48.19
2022-10-02T08:14:44.190Z,47.03
2022-10-02T08:17:31.216Z,46.92
2022-10-02T08:20:16.217Z,47.03
2022-10-02T08:22:52.477Z,47.99
2022-10-02T08:25:49.239Z,47.32
2022-10-02T08:28:24.608Z,47.50
2022-10-02T08:30:51.960Z,47.74
2022-10-02T08:33:23.294Z,49.46
2022-10-02T08:35:59.725Z,48.96
2022-10-02T08:38:40.054Z,48.79
2022-10-02T08:41:22.273Z,48.82
2022-10-02T08:44:15.606Z,48.28
2022-10-02T08:46:59.036Z,49.40
2022-10-02T08:49:47.779Z,49.39
2022-10-02T08:52:31.564Z,48.69
2022-10-02T08:55:20.118Z,48.95
2022-10-02T08:58:11.195Z,48.72
2022-10-02T09:01:04.516Z,48.59
2022-10-02T09:04:18.304Z,48.77
2022-10-02T09:07:08.432Z,48.88
2022-10-02T09:09:55.616Z,48.27
2022-10-02T09:12:42.906Z,48.32
2022-10-02T09:15:18.836Z,47.82
2022-10-02T09:17:48.606Z,48.10
2022-10-02T09:20:24.264Z,47.39
2022-10-02T09:23:36.714Z,47.22
2022-10-02T09:26:46.620Z,46.73
2022-10-02T09:29:38.359Z,47.08
2022-10-02T09:32:44.860Z,46.91
2022-10-02T09:35:53.774Z,47.26
2022-10-02T09:38:30.420Z,47.29
2022-10-02T09:41:33.547Z,47.69
2022-10-02T09:44:24.210Z,48.74
2022-10-02T09:47:19.503Z,49.78
2022-10-02T09:50:14.217Z,50.67
2022-10-02T09:53:17.159Z,52.34
2022-10-02T09:55:57.638Z,51.59
2022-10-02T09:58:46.186Z,52.26
2022-10-02T10:01:32.785Z,52.93
2022-10-02T10:04:30.489Z,53.36
2022-10-02T10:07:33.153Z,54.05
2022-10-02T10:10:13.218Z,53.96
2022-10-02T10:12:49.967Z,53.70
2022-10-02T10:15:30.235Z,53.38
2022-10-02T10:18:10.889Z,54.48
2022-10-02T10:20:44.835Z,55.98
2022-10-02T10:23:51.556Z,55.97
2022-10-02T10:26:45.099Z,55.95
2022-10-02T10:29:45.635Z,55.95
2022-10-02T10:32:32.601Z,56.19
2022-10-02T10:35:24.272Z,55.88
2022-10-02T10:38:31.580Z,56.04
2022-10-02T10:41:02.555Z,55.99
2022-10-02T10:43:42.443Z,55.72
2022-10-02T10:46:52.302Z,55.75
2022-10-02T10:49:35.849Z,54.70
2022-10-02T10:52:34.375Z,54.56
2022-10-02T10:55:27.040Z,54.51
2022-10-02T10:58:04.115Z,54.32
2022-10-02T11:00:47.053Z,54.27
2022-10-02T11:03:36.576Z,54.13
2022-10-02T11:06:37.173Z,54.51
2022-10-02T11:09:32.272Z,54.56
2022-10-02T11:12:18.369Z,54.27
2022-10-02T11:14:48.947Z,54.31
2022-10-02T11:17:40.523Z,54.26
2022-10-02T11:20:25.008Z,54.21
2022-10-02T11:23:29.700Z,54.40
2022-10-02T11:27:03.739Z,54.51
2022-10-02T11:30:11.901Z,54.35
2022-10-02T11:33:11.759Z,54.59
2022-10-02T11:36:18.381Z,55.14
2022-10-02T11:39:22.072Z,54.98
2022-10-02T11:42:13.404Z,55.06
2022-10-02T11:45:16.949Z,55.43
2022-10-02T11:47:47.498Z,56.36
2022-10-02T11:50:48.344Z,55.79
2022-10-02T11:53:39.159Z,55.49
2022-10-02T11:56:23.257Z,55.39
2022-10-02T11:59:18.834Z,55.70
2022-10-02T12:02:00.110Z,56.00
2022-10-02T12:04:52.940Z,55.93
2022-10-02T12:07:41.271Z,55.15
2022-10-02T12:10:46.413Z,55.03
2022-10-02T12:13:29.665Z,55.53
2022-10-02T12:16:06.700Z,54.95
2022-10-02T12:18:40.969Z,54.76
2022-10-02T12:21:43.356Z,54.66
2022-10-02T12:24:55.023Z,54.35
2022-10-02T12:27:32.229Z,54.19
2022-10-02T12:30:17.360Z,53.75
2022-10-02T12:33:13.532Z,56.34
2022-10-02T12:36:07.220Z,53.68
2022-10-02T12:38:40.009Z,53.60
2022-10-02T12:41:11.146Z,52.85
2022-10-02T12:44:09.784Z,53.03
2022-10-02T12:47:04.101Z,52.32
2022-10-02T12:49:59.626Z,51.30
2022-10-02T12:52:51.571Z,52.57
2022-10-02T12:55:35.013Z,50.74
2022-10-02T12:58:03.282Z,50.07
2022-10-02T13:01:04.630Z,49.88
2022-10-02T13:03:49.068Z,49.18
2022-10-02T13:07:11.492Z,49.33
2022-10-02T13:09:45.077Z,49.47
2022-10-02T13:12:54.430Z,48.99
2022-10-02T13:15:37.665Z,48.76
2022-10-02T13:18:46.860Z,47.83
2022-10-02T13:21:57.718Z,49.46
2022-10-02T13:24:56.459Z,45.50
2022-10-02T13:27:42.625Z,47.06
2022-10-02T13:30:24.767Z,44.42
2022-10-02T13:33:06.661Z,43.51
2022-10-02T13:35:55.378Z,43.30
2022-10-02T13:38:47.624Z,43.04
2022-10-02T13:41:47.947Z,42.24
2022-10-02T13:44:49.302Z,41.40
2022-10-02T13:47:23.508Z,41.55
2022-10-02T13:50:00.242Z,41.55
2022-10-02T13:52:52.283Z,40.92
2022-10-02T13:55:33.236Z,40.09
2022-10-02T13:58:36.180Z,40.00
2022-10-02T14:05:22.642Z,39.44
2022-10-02T14:08:06.868Z,38.77
2022-10-02T14:11:11.552Z,38.67
2022-10-02T14:13:48.618Z,38.76
2022-10-02T14:16:44.191Z,38.91
2022-10-02T14:19:54.177Z,39.22
2022-10-02T14:23:05.555Z,39.00
2022-10-02T14:25:52.665Z,38.56
2022-10-02T14:28:51.920Z,38.38
2022-10-02T14:31:43.246Z,37.79
2022-10-02T14:34:42.013Z,38.18
2022-10-02T14:37:33.369Z,39.03
2022-10-02T14:40:14.989Z,39.49
2022-10-02T14:43:03.889Z,39.37
2022-10-02T14:46:32.314Z,39.51
2022-10-02T14:50:00.751Z,40.67
2022-10-02T14:53:06.783Z,41.26
2022-10-02T14:55:37.645Z,41.90
2022-10-02T14:58:30.716Z,42.67
2022-10-02T15:01:27.238Z,43.33
2022-10-02T15:05:00.049Z,43.58
2022-10-02T15:07:35.204Z,43.73
2022-10-02T15:10:27.200Z,44.20
2022-10-02T15:13:40.905Z,44.30
2022-10-02T15:16:40.935Z,44.54
2022-10-02T15:19:58.459Z,44.44
2022-10-02T15:22:48.028Z,44.59
2022-10-02T15:25:28.257Z,43.67
2022-10-02T15:28:24.326Z,43.69
2022-10-02T15:31:19.875Z,44.23
2022-10-02T15:34:17.037Z,44.01
2022-10-02T15:36:56.649Z,44.02
2022-10-02T15:39:40.219Z,45.06
2022-10-02T15:42:23.736Z,45.51
2022-10-02T15:45:15.334Z,45.72
2022-10-02T15:47:50.559Z,46.10
2022-10-02T15:50:54.015Z,46.24
2022-10-02T15:54:05.762Z,46.09
2022-10-02T15:57:26.567Z,45.51
2022-10-02T16:00:23.342Z,45.07
2022-10-02T16:03:10.026Z,44.99
2022-10-02T16:06:12.929Z,45.25
2022-10-02T16:09:04.967Z,45.36
2022-10-02T16:11:44.504Z,45.56
2022-10-02T16:14:24.873Z,45.34
2022-10-02T16:17:57.400Z,45.33
2022-10-02T16:20:39.418Z,45.12
2022-10-02T16:23:39.500Z,45.07
2022-10-02T16:26:13.612Z,45.09
2022-10-02T16:29:34.881Z,45.02
2022-10-02T16:33:06.409Z,45.65
2022-10-02T16:35:54.586Z,46.31
2022-10-02T16:38:51.113Z,48.25
2022-10-02T16:42:02.478Z,49.39
2022-10-02T16:45:03.369Z,49.83
2022-10-02T16:48:07.889Z,50.71
2022-10-02T16:50:59.880Z,51.29
2022-10-02T16:53:50.403Z,51.60
2022-10-02T16:56:32.155Z,51.51
2022-10-02T16:59:25.120Z,51.25
2022-10-02T17:02:17.054Z,51.53
2022-10-02T17:05:01.311Z,51.60
2022-10-02T17:07:48.976Z,52.08
2022-10-02T17:10:37.789Z,53.07
2022-10-02T17:13:46.504Z,53.65
2022-10-02T17:16:21.681Z,54.11
2022-10-02T17:19:02.187Z,54.52
2022-10-02T17:21:38.674Z,54.97
2022-10-02T17:24:38.075Z,55.10
2022-10-02T17:27:33.138Z,55.25
2022-10-02T17:30:09.791Z,55.22
2022-10-02T17:32:50.093Z,55.38
2022-10-02T17:35:34.843Z,55.45
2022-10-02T17:38:47.726Z,55.25
2022-10-02T17:41:18.252Z,55.12
2022-10-02T17:44:02.737Z,54.99
2022-10-02T17:47:07.477Z,55.22
2022-10-02T17:49:49.849Z,55.14
2022-10-02T17:53:02.847Z,55.35
2022-10-02T17:55:56.041Z,55.44
2022-10-02T17:58:42.384Z,55.89
2022-10-02T18:01:32.900Z,56.41
2022-10-02T18:04:21.065Z,56.90
2022-10-02T18:07:22.156Z,56.69
2022-10-02T18:10:25.573Z,57.44
2022-10-02T18:12:59.439Z,57.46
2022-10-02T18:15:45.565Z,57.37
2022-10-02T18:18:52.805Z,58.11
2022-10-02T18:21:46.296Z,57.85
2022-10-02T18:24:41.591Z,58.08
2022-10-02T18:27:45.442Z,58.63
2022-10-02T18:30:20.396Z,58.49
2022-10-02T18:33:24.970Z,58.75
2022-10-02T18:36:18.404Z,58.88
2022-10-02T18:39:12.744Z,59.15
2022-10-02T18:41:56.996Z,59.53
2022-10-02T18:44:49.886Z,59.63
2022-10-02T18:47:39.218Z,59.93
2022-10-02T18:50:40.110Z,60.12
2022-10-02T18:53:30.988Z,60.50
2022-10-02T18:56:14.171Z,60.71
2022-10-02T18:59:13.944Z,60.85
2022-10-02T19:02:08.337Z,61.41
2022-10-02T19:05:14.011Z,61.48
2022-10-02T19:07:53.901Z,61.78
2022-10-02T19:10:24.075Z,61.46
2022-10-02T19:12:57.705Z,61.80
2022-10-02T19:15:33.580Z,62.03
2022-10-02T19:18:08.469Z,62.12
2022-10-02T19:20:51.902Z,61.96
2022-10-02T19:23:45.661Z,62.20
2022-10-02T19:26:20.583Z,62.42
2022-10-02T19:29:03.290Z,62.36
2022-10-02T19:31:36.064Z,62.41
2022-10-02T19:34:12.086Z,62.43
2022-10-02T19:36:50.708Z,62.35
2022-10-02T19:39:30.906Z,62.78
2022-10-02T19:42:03.439Z,62.77
2022-10-02T19:44:36.874Z,62.89
2022-10-02T19:47:28.507Z,63.16
2022-10-02T19:49:59.027Z,62.85
2022-10-02T19:52:44.440Z,62.84
2022-10-02T19:55:23.249Z,62.86
2022-10-02T19:57:57.607Z,62.83
2022-10-02T20:00:28.973Z,62.27
2022-10-02T20:02:59.802Z,62.13
2022-10-02T20:05:32.073Z,61.37
2022-10-02T20:08:07.164Z,61.43
2022-10-02T20:10:43.164Z,60.37
2022-10-02T20:13:38.016Z,60.24
2022-10-02T20:16:42.867Z,60.14
2022-10-02T20:19:31.185Z,60.15
2022-10-02T20:22:04.666Z,60.16
2022-10-02T20:24:51.662Z,60.21
2022-10-02T20:27:52.745Z,60.80
2022-10-02T20:30:27.663Z,60.65
2022-10-02T20:33:21.406Z,60.36
2022-10-02T20:36:06.834Z,60.05
2022-10-02T20:39:01.139Z,60.24
2022-10-02T20:42:10.507Z,60.11
2022-10-02T20:44:42.136Z,59.92
2022-10-02T20:47:46.200Z,59.87
2022-10-02T20:50:46.857Z,59.93
2022-10-02T20:53:36.133Z,60.57
2022-10-02T20:56:41.079Z,60.95
2022-10-02T20:59:23.032Z,61.99
2022-10-02T21:02:00.057Z,61.84
2022-10-02T21:04:46.516Z,63.14
2022-10-02T21:07:36.407Z,63.39
2022-10-02T21:10:32.906Z,63.50
2022-10-02T21:13:18.029Z,64.46
2022-10-02T21:15:48.516Z,64.32
2022-10-02T21:18:42.494Z,64.59
2022-10-02T21:21:31.749Z,64.97
2022-10-02T21:24:11.849Z,65.39
2022-10-02T21:27:04.654Z,65.70
2022-10-02T21:29:42.370Z,66.03
2022-10-02T21:32:48.365Z,66.26
2022-10-02T21:35:44.504Z,66.39
2022-10-02T21:38:28.604Z,66.06
2022-10-02T21:41:16.008Z,66.47
2022-10-02T21:44:21.371Z,65.98
2022-10-02T21:47:27.377Z,66.14
2022-10-02T21:50:32.377Z,66.38
2022-10-02T21:53:37.939Z,66.05
2022-10-02T21:56:31.315Z,65.60
2022-10-02T21:59:19.932Z,65.47
2022-10-02T22:02:13.787Z,65.78
2022-10-02T22:04:53.323Z,65.06
2022-10-02T22:07:33.345Z,65.22
2022-10-02T22:10:15.416Z,65.31
2022-10-02T22:12:51.029Z,65.34
2022-10-02T22:15:53.337Z,65.80
2022-10-02T22:18:30.070Z,65.71
2022-10-02T22:21:20.278Z,65.71
2022-10-02T22:24:19.761Z,65.72
2022-10-02T22:27:36.591Z,65.74
2022-10-02T22:30:05.780Z,65.70
2022-10-02T22:33:09.755Z,65.49
2022-10-02T22:35:50.376Z,65.41
2022-10-02T22:38:36.871Z,64.91
2022-10-02T22:41:16.613Z,65.05
2022-10-02T22:43:54.654Z,64.83
2022-10-02T22:46:51.978Z,65.13
2022-10-02T22:49:44.238Z,65.01
2022-10-02T22:52:30.446Z,65.10
2022-10-02T22:55:26.458Z,65.11
2022-10-02T22:58:11.207Z,65.31
2022-10-02T23:00:58.047Z,65.33
2022-10-02T23:03:37.525Z,65.37
2022-10-02T23:06:35.535Z,65.64
2022-10-02T23:09:44.065Z,65.43
2022-10-02T23:12:26.617Z,65.85
2022-10-02T23:15:23.884Z,65.47
2022-10-02T23:18:06.340Z,65.56
2022-10-02T23:20:41.690Z,65.56
2022-10-02T23:23:21.431Z,65.35
2022-10-02T23:25:57.256Z,65.35
2022-10-02T23:28:54.443Z,65.13
2022-10-02T23:31:35.312Z,64.84
2022-10-02T23:34:54.690Z,64.63
2022-10-02T23:37:40.374Z,64.75
2022-10-02T23:40:53.272Z,64.58
2022-10-02T23:43:32.975Z,64.42
2022-10-02T23:46:10.347Z,64.45
2022-10-02T23:48:39.724Z,64.25
2022-10-02T23:51:43.031Z,64.50
2022-10-02T23:54:29.607Z,64.33
2022-10-02T23:57:23.379Z,64.35
